Time;durP1;ratioP1;P1;durP2;ratioP2;P2;SDS_P1;SDS_P2;PMS_P1;PMS_P2;Temp;Humidity;BMP_temperature;BMP_pressure;BME280_temperature;BME280_humidity;BME280_pressure;Samples;Min_cycle;Max_cycle;Signal;HPM_P1;HPM_P2
2021/10/28 00:12:55;;;;;;;11.85;4.80;;;13.10;99.90;;;;;;5090427;28;20047;-74
2021/10/28 00:15:58;;;;;;;14.82;5.15;;;13.10;99.90;;;;;;5087365;28;20060;-72
2021/10/28 00:18:18;;;;;;;8.15;4.13;;;13.10;99.90;;;;;;5086301;28;20127;-73
2021/10/28 00:20:45;;;;;;;11.00;4.75;;;13.10;99.90;;;;;;5092174;28;20057;-73
2021/10/28 00:23:12;;;;;;;8.80;4.20;;;13.10;99.90;;;;;;5088949;28;20127;-74
2021/10/28 00:25:39;;;;;;;9.00;4.85;;;13.00;99.90;;;;;;5089374;28;20051;-74
2021/10/28 00:28:07;;;;;;;11.43;4.97;;;13.00;99.90;;;;;;5088041;28;20047;-72
2021/10/28 00:30:34;;;;;;;9.20;4.82;;;13.00;99.90;;;;;;5087864;28;20052;-73
2021/10/28 00:33:01;;;;;;;12.10;4.15;;;13.00;99.90;;;;;;5088834;28;20085;-75
2021/10/28 00:35:29;;;;;;;11.60;4.47;;;13.00;99.90;;;;;;5089387;28;20408;-72
2021/10/28 00:37:56;;;;;;;16.02;5.75;;;13.00;99.90;;;;;;5072979;28;20131;-73
2021/10/28 00:40:23;;;;;;;16.85;5.53;;;13.00;99.90;;;;;;5088676;28;20044;-74
2021/10/28 00:42:51;;;;;;;12.52;5.07;;;13.00;99.90;;;;;;5088585;28;20538;-73
2021/10/28 00:45:18;;;;;;;12.80;5.68;;;12.90;99.90;;;;;;5087141;28;20051;-73
2021/10/28 00:47:45;;;;;;;9.93;4.63;;;12.90;99.90;;;;;;5088625;28;20055;-74
2021/10/28 00:50:12;;;;;;;11.48;4.57;;;12.90;99.90;;;;;;5088865;28;20136;-74
2021/10/28 00:52:39;;;;;;;13.90;5.00;;;12.90;99.90;;;;;;5092202;28;20040;-73
2021/10/28 00:55:08;;;;;;;14.23;4.35;;;12.90;99.90;;;;;;5087833;28;20146;-73
2021/10/28 00:57:35;;;;;;;12.02;4.40;;;12.80;99.90;;;;;;5071152;28;20055;-73
2021/10/28 01:00:05;;;;;;;9.95;4.43;;;12.80;99.90;;;;;;5088666;28;20407;-74
2021/10/28 01:02:32;;;;;;;14.65;4.63;;;12.80;99.90;;;;;;5087906;28;20058;-73
2021/10/28 01:04:59;;;;;;;15.13;6.47;;;12.80;99.90;;;;;;5088320;28;20051;-76
2021/10/28 01:07:27;;;;;;;9.00;4.78;;;12.80;99.90;;;;;;5089871;28;20113;-74
2021/10/28 01:09:54;;;;;;;11.70;5.13;;;12.70;99.90;;;;;;5088573;28;20039;-74
2021/10/28 01:12:21;;;;;;;12.73;4.53;;;12.70;99.90;;;;;;5088067;28;20123;-74
2021/10/28 01:14:48;;;;;;;16.75;5.82;;;12.70;99.90;;;;;;5087427;28;20127;-74
2021/10/28 01:17:15;;;;;;;11.23;4.72;;;12.80;99.90;;;;;;5088914;28;20104;-74
2021/10/28 01:19:43;;;;;;;11.73;4.53;;;12.80;99.90;;;;;;5088762;28;20127;-73
2021/10/28 01:22:10;;;;;;;15.13;5.70;;;12.80;99.90;;;;;;5090874;28;20040;-76
2021/10/28 01:24:37;;;;;;;15.05;5.57;;;12.80;99.90;;;;;;5087457;28;20493;-76
2021/10/28 01:27:05;;;;;;;10.13;4.07;;;12.80;99.90;;;;;;5086820;28;20051;-73
2021/10/28 01:29:32;;;;;;;13.48;4.88;;;12.80;99.90;;;;;;5087701;28;20051;-74
2021/10/28 01:32:00;;;;;;;11.80;5.00;;;12.80;99.90;;;;;;5088142;28;20091;-75
2021/10/28 01:34:29;;;;;;;11.15;4.43;;;12.80;99.90;;;;;;5087726;28;20062;-74
2021/10/28 01:36:57;;;;;;;13.93;5.10;;;12.90;99.90;;;;;;5088316;28;20060;-75
2021/10/28 01:39:24;;;;;;;11.85;4.43;;;12.80;99.90;;;;;;5087793;28;20047;-74
2021/10/28 01:41:52;;;;;;;12.15;4.72;;;12.80;99.90;;;;;;5088217;28;20047;-75
2021/10/28 01:44:19;;;;;;;9.20;4.63;;;12.80;99.90;;;;;;5071648;28;20044;-75
2021/10/28 01:46:47;;;;;;;8.25;4.40;;;12.80;99.90;;;;;;5086890;28;20047;-75
2021/10/28 01:49:24;;;;;;;13.55;4.18;;;12.80;99.90;;;;;;5086380;28;20070;-74
2021/10/28 01:51:53;;;;;;;10.50;4.80;;;12.70;99.90;;;;;;5089674;28;20041;-75
2021/10/28 01:54:21;;;;;;;;;;;12.70;99.90;;;;;;5087500;28;20075;-74
2021/10/28 01:56:49;;;;;;;14.00;6.50;;;12.70;99.90;;;;;;5088345;28;19935;-75
2021/10/28 01:59:17;;;;;;;11.18;5.55;;;12.70;99.90;;;;;;5054582;28;20040;-73
2021/10/28 02:01:44;;;;;;;10.15;5.65;;;12.70;99.90;;;;;;5053459;28;20063;-75
2021/10/28 02:04:13;;;;;;;9.15;5.55;;;12.70;99.90;;;;;;5089012;28;20415;-75
2021/10/28 02:06:40;;;;;;;9.25;6.07;;;12.70;99.90;;;;;;5086977;28;20055;-75
2021/10/28 02:09:08;;;;;;;16.25;5.63;;;12.60;99.90;;;;;;5088459;28;20082;-74
2021/10/28 02:11:35;;;;;;;15.13;6.20;;;12.60;99.90;;;;;;5088123;28;20044;-73
2021/10/28 02:14:02;;;;;;;8.98;6.10;;;12.60;99.90;;;;;;5089272;28;20048;-74
2021/10/28 02:16:31;;;;;;;10.43;5.90;;;12.50;99.90;;;;;;5087330;28;20422;-73
2021/10/28 02:19:02;;;;;;;10.75;5.70;;;12.50;99.90;;;;;;5088296;28;20044;-74
2021/10/28 02:21:30;;;;;;;12.15;5.88;;;12.50;99.90;;;;;;5091905;28;20416;-75
2021/10/28 02:23:56;;;;;;;10.55;6.75;;;12.50;99.90;;;;;;5069448;28;20040;-75
2021/10/28 02:26:25;;;;;;;15.45;8.10;;;12.40;99.90;;;;;;5088498;28;20523;-74
2021/10/28 02:28:54;;;;;;;10.18;6.72;;;12.40;99.90;;;;;;5089309;28;20040;-75
2021/10/28 02:31:21;;;;;;;13.00;6.20;;;12.40;99.90;;;;;;5087267;28;20040;-74
2021/10/28 02:33:48;;;;;;;14.95;7.03;;;12.40;99.90;;;;;;5086003;28;20052;-73
2021/10/28 02:36:17;;;;;;;14.20;6.47;;;12.40;99.90;;;;;;5088559;28;20040;-74
2021/10/28 02:38:45;;;;;;;10.00;6.32;;;12.40;99.90;;;;;;5087720;28;20089;-74
2021/10/28 02:41:12;;;;;;;10.98;7.07;;;12.40;99.90;;;;;;5088084;28;20487;-74
2021/10/28 02:43:40;;;;;;;11.40;7.35;;;12.30;99.90;;;;;;5070789;28;20183;-74
2021/10/28 02:46:07;;;;;;;22.85;8.25;;;12.30;99.90;;;;;;5090643;28;20515;-74
2021/10/28 02:48:34;;;;;;;14.73;8.35;;;12.30;99.90;;;;;;5086803;28;20097;-74
2021/10/28 02:51:03;;;;;;;12.57;7.28;;;12.30;99.90;;;;;;5084621;28;20076;-76
2021/10/28 02:53:30;;;;;;;16.70;8.38;;;12.30;99.90;;;;;;5084072;28;20043;-75
2021/10/28 02:55:57;;;;;;;15.82;8.65;;;12.30;99.90;;;;;;5094170;28;20036;-75
2021/10/28 02:58:25;;;;;;;10.20;7.65;;;12.30;99.90;;;;;;5071540;28;20052;-75
2021/10/28 03:00:52;;;;;;;13.30;7.68;;;12.30;99.90;;;;;;5089503;28;20356;-74
2021/10/28 03:03:19;;;;;;;15.38;8.88;;;12.30;99.90;;;;;;5088011;28;20443;-74
2021/10/28 03:05:47;;;;;;;15.02;8.88;;;12.30;99.90;;;;;;5090659;28;20055;-74
2021/10/28 03:08:15;;;;;;;18.27;9.32;;;12.30;99.90;;;;;;5087701;28;20036;-73
2021/10/28 03:10:43;;;;;;;13.60;8.32;;;12.30;99.90;;;;;;5065896;28;20134;-74
2021/10/28 03:13:14;;;;;;;15.07;9.00;;;12.30;99.90;;;;;;5085152;28;20119;-74
2021/10/28 03:15:41;;;;;;;15.73;8.23;;;12.30;99.90;;;;;;5080022;28;20041;-75
2021/10/28 03:26:15;;;;;;;17.92;7.65;;;12.20;99.90;;;;;;5080014;28;20131;-74
2021/10/28 03:28:42;;;;;;;19.02;8.00;;;12.20;99.90;;;;;;5085944;28;20395;-75
2021/10/28 03:31:10;;;;;;;13.25;7.15;;;12.20;99.90;;;;;;5075983;28;20052;-75
2021/10/28 03:33:41;;;;;;;17.02;8.27;;;12.20;99.90;;;;;;5087544;28;20048;-75
2021/10/28 03:36:13;;;;;;;12.57;7.43;;;12.20;99.90;;;;;;5091435;28;20044;-74
2021/10/28 03:39:30;;;;;;;12.32;6.72;;;12.10;99.90;;;;;;5078536;28;20052;-74
2021/10/28 03:44:40;;;;;;;11.65;6.47;;;12.10;99.90;;;;;;5084554;28;20119;-73
2021/10/28 04:00:11;;;;;;;15.75;6.60;;;12.10;99.90;;;;;;5089630;28;20086;-75
2021/10/28 04:30:22;;;;;;;13.60;7.50;;;12.00;99.90;;;;;;5089304;28;20532;-74
2021/10/28 04:32:50;;;;;;;14.07;7.03;;;12.00;99.90;;;;;;5089888;28;20070;-74
2021/10/28 04:35:18;;;;;;;10.52;6.50;;;12.00;99.90;;;;;;5083522;28;20044;-73
2021/10/28 04:37:46;;;;;;;16.35;7.28;;;12.00;99.90;;;;;;5088683;28;20093;-74
2021/10/28 04:40:13;;;;;;;14.57;7.72;;;12.00;99.90;;;;;;5089502;28;20055;-74
2021/10/28 04:42:41;;;;;;;23.63;7.45;;;12.00;99.90;;;;;;5072373;28;20401;-74
2021/10/28 04:45:08;;;;;;;13.63;6.60;;;12.00;99.90;;;;;;5089714;28;20148;-73
2021/10/28 04:47:35;;;;;;;12.75;6.78;;;12.00;99.90;;;;;;5082729;28;20059;-74
2021/10/28 04:50:04;;;;;;;15.60;6.65;;;12.00;99.90;;;;;;5089616;28;20054;-74
2021/10/28 04:52:31;;;;;;;12.75;6.03;;;12.00;99.90;;;;;;5087985;28;20040;-74
2021/10/28 04:54:58;;;;;;;13.32;7.30;;;11.90;99.90;;;;;;5089388;28;20479;-74
2021/10/28 04:57:25;;;;;;;16.30;7.03;;;11.90;99.90;;;;;;5081668;28;20082;-75
2021/10/28 04:59:52;;;;;;;10.13;7.13;;;12.00;99.90;;;;;;5086223;28;20055;-75
2021/10/28 05:02:19;;;;;;;13.75;6.80;;;12.00;99.90;;;;;;5071486;28;20665;-73
2021/10/28 05:04:47;;;;;;;11.93;6.65;;;12.00;99.90;;;;;;5088499;28;20051;-74
2021/10/28 05:07:14;;;;;;;14.95;7.13;;;12.00;99.90;;;;;;5086357;28;20043;-75
2021/10/28 05:09:41;;;;;;;12.88;6.57;;;12.00;99.90;;;;;;5097711;28;20046;-75
2021/10/28 05:12:09;;;;;;;16.40;8.73;;;11.90;99.90;;;;;;5069111;28;20094;-74
2021/10/28 05:14:38;;;;;;;10.35;6.45;;;11.90;99.90;;;;;;5087472;28;20511;-75
2021/10/28 05:17:06;;;;;;;15.18;7.60;;;11.90;99.90;;;;;;5088549;28;20048;-75
2021/10/28 05:19:37;;;;;;;15.07;7.13;;;11.90;99.90;;;;;;5087455;28;20096;-74
2021/10/28 05:22:05;;;;;;;13.25;7.10;;;11.90;99.90;;;;;;5097074;28;20044;-76
2021/10/28 05:24:33;;;;;;;16.92;7.82;;;11.90;99.90;;;;;;5086148;28;20427;-76
2021/10/28 05:27:00;;;;;;;11.60;6.90;;;11.90;99.90;;;;;;5085721;28;20048;-75
2021/10/28 05:29:28;;;;;;;11.30;6.80;;;11.90;99.90;;;;;;5088079;28;20067;-74
2021/10/28 05:31:57;;;;;;;13.10;6.93;;;11.80;99.90;;;;;;5088116;28;20082;-74
2021/10/28 05:34:24;;;;;;;14.60;7.60;;;11.80;99.90;;;;;;5089354;28;20058;-73
2021/10/28 05:36:51;;;;;;;14.57;6.97;;;11.80;99.90;;;;;;5087598;28;20047;-75
2021/10/28 05:39:18;;;;;;;13.38;7.45;;;11.80;99.90;;;;;;5087124;28;20051;-76
2021/10/28 05:41:47;;;;;;;12.75;8.48;;;11.80;99.90;;;;;;5088071;28;20044;-75
2021/10/28 05:44:14;;;;;;;17.13;12.95;;;11.80;99.90;;;;;;5088431;28;20070;-75
2021/10/28 05:46:41;;;;;;;14.43;7.13;;;11.80;99.90;;;;;;5071389;28;20044;-77
2021/10/28 05:49:08;;;;;;;12.98;7.15;;;11.80;99.90;;;;;;5089554;28;20123;-82
2021/10/28 05:51:37;;;;;;;14.65;6.93;;;11.80;99.90;;;;;;5087505;28;20048;-74
2021/10/28 05:54:04;;;;;;;14.80;7.47;;;11.90;99.90;;;;;;5086299;28;20164;-75
2021/10/28 05:56:31;;;;;;;20.98;7.63;;;11.80;99.90;;;;;;5087267;28;20044;-75
2021/10/28 05:58:58;;;;;;;15.10;8.07;;;11.90;99.90;;;;;;5083426;28;20399;-76
2021/10/28 06:01:25;;;;;;;15.38;9.55;;;11.80;99.90;;;;;;5081714;28;20048;-75
2021/10/28 06:03:53;;;;;;;14.07;7.78;;;11.90;99.90;;;;;;5085524;28;20070;-75
2021/10/28 06:06:20;;;;;;;14.30;7.25;;;11.80;99.90;;;;;;5086053;28;20460;-73
2021/10/28 06:08:47;;;;;;;12.63;7.45;;;11.80;99.90;;;;;;5073867;28;20048;-72
2021/10/28 06:11:16;;;;;;;14.75;6.93;;;11.80;99.90;;;;;;5074514;28;20383;-73
2021/10/28 06:13:48;;;;;;;13.38;7.28;;;11.80;99.90;;;;;;5068282;28;20048;-74
2021/10/28 06:16:15;;;;;;;10.15;6.85;;;11.90;99.90;;;;;;5066315;28;20079;-72
2021/10/28 06:18:43;;;;;;;18.92;7.05;;;11.80;99.90;;;;;;5074259;28;20048;-71
2021/10/28 06:21:10;;;;;;;11.45;6.20;;;11.80;99.90;;;;;;5081855;28;20055;-70
2021/10/28 06:23:38;;;;;;;15.55;6.57;;;11.80;99.90;;;;;;5086752;28;20048;-73
2021/10/28 06:26:07;;;;;;;11.95;7.22;;;11.80;99.90;;;;;;5083900;28;21169;-82
2021/10/28 06:28:34;;;;;;;10.50;6.25;;;11.80;99.90;;;;;;5087222;28;20684;-73
2021/10/28 06:31:01;;;;;;;14.52;7.18;;;11.80;99.90;;;;;;5090131;28;20040;-72
2021/10/28 06:33:31;;;;;;;18.05;7.40;;;11.70;99.90;;;;;;5090754;28;20048;-69
2021/10/28 06:35:58;;;;;;;13.02;7.00;;;11.70;99.90;;;;;;5089944;28;20048;-68
2021/10/28 06:38:25;;;;;;;13.70;6.90;;;11.70;99.90;;;;;;5088067;28;20740;-68
2021/10/28 06:40:52;;;;;;;11.52;6.55;;;11.70;99.90;;;;;;5089282;28;20335;-68
2021/10/28 06:43:20;;;;;;;13.85;6.60;;;11.70;99.90;;;;;;5090776;28;20067;-69
2021/10/28 06:45:47;;;;;;;10.75;5.82;;;11.70;99.90;;;;;;5087210;28;20047;-69
2021/10/28 06:48:14;;;;;;;11.82;6.25;;;11.70;99.90;;;;;;5054385;28;20044;-69
2021/10/28 06:51:03;;;;;;;11.32;5.50;;;11.70;99.90;;;;;;5094192;28;20052;-69
2021/10/28 06:53:35;;;;;;;15.63;7.28;;;11.70;99.90;;;;;;5086416;28;20051;-69
2021/10/28 07:04:04;;;;;;;12.93;7.05;;;11.80;99.90;;;;;;5089460;28;20085;-68
2021/10/28 07:06:36;;;;;;;12.88;6.38;;;11.90;99.90;;;;;;5100340;28;20044;-69
2021/10/28 07:09:15;;;;;;;16.58;7.20;;;11.90;99.90;;;;;;5089037;28;20048;-68
2021/10/28 07:11:42;;;;;;;;;;;11.90;99.90;;;;;;5090714;28;20059;-71
2021/10/28 07:14:11;;;;;;;10.45;5.93;;;11.80;99.90;;;;;;5089375;28;19920;-72
2021/10/28 07:16:46;;;;;;;13.30;6.28;;;11.80;99.90;;;;;;5070657;28;20075;-72
2021/10/28 07:19:41;;;;;;;9.82;6.00;;;11.90;99.90;;;;;;5089011;28;20083;-73
2021/10/28 08:19:17;;;;;;;7.85;4.75;;;12.60;99.90;;;;;;5089040;28;19924;-74
2021/10/28 08:21:50;;;;;;;11.88;5.22;;;12.60;99.90;;;;;;5103498;28;20100;-74
2021/10/28 08:29:52;;;;;;;78.07;61.40;;;12.80;99.90;;;;;;5091013;28;20056;-75
2021/10/28 08:32:19;;;;;;;17.05;9.90;;;12.90;99.90;;;;;;5088395;28;20051;-73
2021/10/28 08:34:49;;;;;;;14.63;6.72;;;12.90;99.90;;;;;;5090246;28;20067;-70
2021/10/28 08:37:18;;;;;;;11.10;5.93;;;12.90;99.90;;;;;;5084811;28;20050;-73
2021/10/28 08:39:47;;;;;;;10.05;4.63;;;12.80;99.90;;;;;;5096811;28;20063;-72
2021/10/28 08:42:15;;;;;;;11.63;4.30;;;12.80;99.90;;;;;;5089119;28;20505;-71
2021/10/28 08:44:53;;;;;;;6.25;3.70;;;12.80;99.90;;;;;;5088818;28;20044;-71
2021/10/28 08:47:24;;;;;;;22.23;5.45;;;12.80;99.90;;;;;;5067642;28;20532;-70
2021/10/28 08:52:49;;;;;;;7.75;3.92;;;12.90;99.80;;;;;;5089445;28;20207;-70
2021/10/28 09:26:16;;;;;;;9.13;4.75;;;13.60;98.30;;;;;;5087941;28;20128;-69
2021/10/28 09:28:47;;;;;;;8.10;2.85;;;13.70;98.10;;;;;;5088109;28;20048;-69
2021/10/28 09:31:18;;;;;;;7.97;3.83;;;13.80;98.20;;;;;;5087256;28;20052;-69
2021/10/28 09:45:50;;;;;;;8.48;2.85;;;14.10;96.10;;;;;;5078237;28;20044;-69
2021/10/28 09:51:05;;;;;;;7.55;3.47;;;14.10;95.40;;;;;;5084420;28;20043;-70
2021/10/28 09:53:59;;;;;;;7.57;3.22;;;14.10;95.30;;;;;;5072045;28;20056;-72
2021/10/28 09:59:31;;;;;;;6.13;3.28;;;14.30;95.20;;;;;;5088980;28;20052;-68
2021/10/28 10:02:12;;;;;;;9.43;3.60;;;14.40;95.40;;;;;;5074383;28;20098;-69
2021/10/28 10:04:44;;;;;;;8.10;3.70;;;14.40;95.40;;;;;;5102388;28;20071;-69
2021/10/28 10:07:17;;;;;;;7.82;3.05;;;14.30;95.00;;;;;;5090864;28;20048;-71
2021/10/28 10:09:46;;;;;;;11.32;6.22;;;14.30;95.40;;;;;;5089837;28;20052;-70
2021/10/28 10:12:13;;;;;;;12.30;6.07;;;14.30;95.10;;;;;;5096788;28;20052;-75
2021/10/28 10:14:40;;;;;;;7.32;3.35;;;14.30;94.60;;;;;;5091699;28;20044;-68
2021/10/28 10:17:08;;;;;;;8.85;3.38;;;14.40;94.60;;;;;;5074583;28;20096;-68
2021/10/28 10:19:46;;;;;;;9.75;4.28;;;14.30;94.20;;;;;;5092722;28;20055;-69
2021/10/28 10:22:21;;;;;;;10.77;3.40;;;14.40;94.10;;;;;;5102550;28;20040;-67
2021/10/28 10:25:00;;;;;;;6.78;2.90;;;14.40;94.90;;;;;;5070257;28;20416;-69
2021/10/28 11:31:27;;;;;;;6.85;2.50;;;15.10;92.70;;;;;;5091177;28;20048;-71
2021/10/28 12:45:55;;;;;;;8.57;4.38;;;15.10;93.70;;;;;;5089659;28;20052;-70
2021/10/28 12:54:43;;;;;;;6.15;4.25;;;15.20;93.30;;;;;;5090757;28;20044;-69
2021/10/28 13:50:19;;;;;;;5.53;2.80;;;15.80;92.00;;;;;;5089578;28;20127;-68
2021/10/28 13:55:53;;;;;;;9.10;3.30;;;15.60;91.50;;;;;;5088821;28;20503;-68
2021/10/28 13:58:40;;;;;;;8.57;2.95;;;15.60;91.80;;;;;;5089812;28;20404;-68
2021/10/28 14:20:42;;;;;;;6.00;2.75;;;15.20;92.00;;;;;;5086107;28;20087;-71
2021/10/28 15:28:41;;;;;;;12.55;5.13;;;14.90;93.80;;;;;;5092251;28;20403;-76
2021/10/28 15:47:42;;;;;;;10.00;5.03;;;14.60;94.00;;;;;;5090853;28;20084;-70
2021/10/28 16:22:39;;;;;;;9.85;5.97;;;13.90;96.70;;;;;;5082443;28;20044;-70
2021/10/28 16:25:06;;;;;;;13.98;6.32;;;13.90;96.80;;;;;;5091764;28;20096;-68
2021/10/28 16:27:33;;;;;;;11.85;5.90;;;13.80;96.70;;;;;;5088767;28;20063;-68
2021/10/28 16:30:00;;;;;;;12.00;5.60;;;13.80;96.90;;;;;;5089866;28;20051;-68
2021/10/28 16:32:27;;;;;;;14.90;5.97;;;13.80;96.70;;;;;;5089546;28;20063;-69
2021/10/28 16:34:54;;;;;;;11.23;5.20;;;13.80;96.60;;;;;;5088873;28;20143;-69
2021/10/28 16:37:22;;;;;;;13.10;5.47;;;13.70;96.30;;;;;;5088865;28;20047;-67
2021/10/28 16:39:50;;;;;;;8.85;5.20;;;13.70;96.70;;;;;;5089019;28;20060;-68
2021/10/28 16:42:17;;;;;;;8.90;5.55;;;13.70;96.20;;;;;;5088349;28;20040;-72
2021/10/28 16:44:45;;;;;;;10.20;5.80;;;13.70;96.40;;;;;;5088850;28;20505;-72
2021/10/28 16:47:15;;;;;;;11.40;5.90;;;13.70;96.20;;;;;;5089146;28;20066;-69
2021/10/28 16:49:43;;;;;;;16.67;7.45;;;13.70;96.10;;;;;;5087843;28;20135;-73
2021/10/28 16:52:10;;;;;;;20.15;13.07;;;13.70;96.10;;;;;;5092267;28;20479;-68
2021/10/28 16:54:37;;;;;;;12.27;8.73;;;13.70;96.00;;;;;;5090325;28;20051;-69
2021/10/28 16:57:04;;;;;;;14.10;6.75;;;13.60;95.90;;;;;;5090250;28;20072;-65
2021/10/28 16:59:31;;;;;;;11.60;5.57;;;13.60;96.10;;;;;;5090151;28;20749;-67
2021/10/28 17:01:58;;;;;;;13.73;6.85;;;13.60;96.10;;;;;;5088165;28;20477;-68
2021/10/28 17:04:25;;;;;;;10.43;6.68;;;13.50;96.20;;;;;;5089679;28;20052;-70
2021/10/28 17:06:52;;;;;;;14.18;7.45;;;13.50;96.40;;;;;;5089685;28;20463;-67
2021/10/28 17:09:20;;;;;;;11.23;6.40;;;13.50;96.00;;;;;;5069414;28;20124;-68
2021/10/28 17:11:47;;;;;;;9.45;5.20;;;13.50;96.00;;;;;;5087802;28;20052;-69
2021/10/28 17:14:14;;;;;;;7.20;4.45;;;13.40;95.90;;;;;;5071944;28;20056;-69
2021/10/28 17:16:44;;;;;;;10.52;4.38;;;13.50;95.80;;;;;;5088360;28;20055;-68
2021/10/28 17:19:12;;;;;;;9.88;4.68;;;13.50;96.00;;;;;;5088845;28;20055;-69
2021/10/28 17:21:38;;;;;;;14.77;7.50;;;13.40;95.80;;;;;;5101674;28;20126;-68
2021/10/28 17:24:08;;;;;;;20.02;11.77;;;13.40;95.80;;;;;;5059314;28;20552;-68
2021/10/28 17:26:35;;;;;;;16.50;8.23;;;13.40;95.80;;;;;;5089708;28;20092;-68
2021/10/28 17:29:04;;;;;;;12.45;6.00;;;13.40;96.00;;;;;;5089049;28;20040;-69
2021/10/28 17:31:35;;;;;;;12.40;6.50;;;13.40;96.00;;;;;;5088832;28;20127;-69
2021/10/28 17:34:03;;;;;;;14.43;8.73;;;13.40;96.20;;;;;;5069469;28;20044;-69
2021/10/28 17:36:31;;;;;;;14.65;8.95;;;13.40;96.20;;;;;;5087221;28;20066;-69
2021/10/28 17:39:01;;;;;;;17.60;7.50;;;13.30;96.40;;;;;;5088228;28;20487;-69
2021/10/28 17:41:28;;;;;;;32.22;22.50;;;13.30;96.30;;;;;;5089836;28;20353;-68
2021/10/28 17:43:56;;;;;;;14.68;8.48;;;13.30;96.30;;;;;;5090207;28;20051;-70
2021/10/28 17:46:27;;;;;;;14.13;6.60;;;13.40;96.30;;;;;;5071751;28;20395;-69
2021/10/28 17:48:54;;;;;;;9.80;5.00;;;13.30;96.30;;;;;;5084455;28;20082;-69
2021/10/28 17:51:21;;;;;;;14.80;5.47;;;13.30;96.30;;;;;;5083667;28;20052;-69
2021/10/28 17:53:48;;;;;;;9.18;5.00;;;13.30;96.30;;;;;;5089000;28;20055;-69
2021/10/28 17:56:16;;;;;;;10.32;5.00;;;13.30;96.30;;;;;;5087346;28;20040;-69
2021/10/28 17:58:43;;;;;;;10.50;4.97;;;13.30;96.20;;;;;;5085781;28;20056;-68
2021/10/28 18:01:11;;;;;;;8.77;5.35;;;13.30;96.30;;;;;;5089233;28;20044;-69
2021/10/28 18:03:38;;;;;;;14.27;5.47;;;13.20;96.30;;;;;;5089664;28;20544;-68
2021/10/28 18:06:05;;;;;;;9.43;4.93;;;13.20;96.20;;;;;;5089242;28;20097;-69
2021/10/28 18:08:32;;;;;;;11.88;5.13;;;13.20;96.40;;;;;;5088565;28;20392;-72
2021/10/28 18:10:59;;;;;;;11.65;4.80;;;13.20;96.10;;;;;;5087347;28;20052;-68
2021/10/28 18:13:26;;;;;;;10.93;4.50;;;13.30;95.90;;;;;;5087485;28;20044;-65
2021/10/28 18:15:53;;;;;;;12.80;5.07;;;13.30;95.80;;;;;;5095664;28;20047;-67
2021/10/28 18:18:20;;;;;;;9.00;5.20;;;13.30;95.70;;;;;;5069479;28;20052;-68
2021/10/28 18:20:59;;;;;;;9.50;5.18;;;13.30;95.70;;;;;;5102252;28;20495;-68
2021/10/28 18:23:30;;;;;;;9.23;4.43;;;13.30;95.40;;;;;;5078902;28;20055;-68
2021/10/28 18:25:57;;;;;;;7.85;4.57;;;13.30;95.40;;;;;;5072344;28;20055;-68
2021/10/28 18:28:25;;;;;;;8.90;5.05;;;13.30;95.30;;;;;;5092800;28;20051;-68
2021/10/28 18:30:52;;;;;;;10.70;4.63;;;13.30;95.00;;;;;;5072886;28;20062;-69
2021/10/28 18:33:19;;;;;;;7.65;4.72;;;13.30;94.90;;;;;;5090919;28;20044;-68
2021/10/28 18:35:46;;;;;;;7.38;4.68;;;13.30;94.90;;;;;;5089696;28;20063;-68
2021/10/28 18:38:14;;;;;;;7.22;4.45;;;13.30;94.90;;;;;;5090156;28;20591;-68
2021/10/28 18:40:41;;;;;;;9.65;4.05;;;13.30;94.90;;;;;;5085787;28;20048;-68
2021/10/28 18:43:08;;;;;;;13.48;5.43;;;13.30;95.10;;;;;;5086358;28;20292;-68
2021/10/28 18:45:35;;;;;;;7.28;4.30;;;13.30;94.90;;;;;;5089938;28;20048;-71
2021/10/28 18:48:02;;;;;;;12.95;5.18;;;13.30;94.80;;;;;;5089977;28;20047;-68
2021/10/28 18:50:30;;;;;;;8.85;4.70;;;13.30;94.90;;;;;;5090209;28;20044;-69
2021/10/28 18:52:59;;;;;;;10.20;5.22;;;13.20;94.90;;;;;;5071125;28;20131;-68
2021/10/28 18:55:26;;;;;;;11.05;4.20;;;13.20;95.20;;;;;;5090519;28;20048;-68
2021/10/28 18:57:53;;;;;;;7.15;4.45;;;13.20;95.30;;;;;;5089805;28;20660;-68
2021/10/28 19:00:20;;;;;;;19.98;15.38;;;13.10;95.20;;;;;;5089797;28;20092;-67
2021/10/28 19:02:47;;;;;;;11.43;7.38;;;13.20;95.20;;;;;;5090536;28;20052;-67
2021/10/28 19:05:15;;;;;;;9.00;5.53;;;13.20;95.20;;;;;;5090511;28;20487;-67
2021/10/28 19:07:45;;;;;;;10.20;6.25;;;13.20;95.20;;;;;;5090177;28;20070;-73
2021/10/28 19:10:12;;;;;;;11.82;5.28;;;13.20;95.40;;;;;;5083886;28;20582;-66
2021/10/28 19:12:40;;;;;;;9.60;4.72;;;13.20;95.40;;;;;;5093031;28;20498;-66
2021/10/28 19:15:08;;;;;;;10.30;5.53;;;13.20;95.30;;;;;;5090598;28;20111;-66
2021/10/28 19:17:35;;;;;;;12.43;4.70;;;13.20;95.20;;;;;;5090011;28;20058;-66
2021/10/28 19:20:03;;;;;;;10.02;5.10;;;13.30;95.10;;;;;;5073013;28;20040;-66
2021/10/28 19:22:31;;;;;;;7.55;4.57;;;13.30;95.00;;;;;;5091346;28;20056;-67
2021/10/28 19:24:59;;;;;;;12.85;5.03;;;13.40;94.90;;;;;;5089229;28;20126;-67
2021/10/28 19:27:31;;;;;;;12.45;5.38;;;13.40;95.00;;;;;;5090825;28;20109;-67
2021/10/28 19:30:15;;;;;;;10.57;5.38;;;13.40;95.00;;;;;;5090141;28;20062;-67
2021/10/28 19:32:44;;;;;;;9.75;6.18;;;13.40;95.10;;;;;;5088476;28;20484;-66
2021/10/28 19:35:11;;;;;;;12.45;4.68;;;13.40;95.20;;;;;;5079400;28;20048;-66
2021/10/28 19:47:43;;;;;;;7.93;5.72;;;13.30;95.80;;;;;;5090167;28;20048;-67
2021/10/28 19:50:13;;;;;;;9.43;5.07;;;13.40;95.90;;;;;;5089589;28;20040;-67
2021/10/28 19:52:42;;;;;;;8.95;5.25;;;13.40;96.00;;;;;;5089960;28;20048;-67
2021/10/28 19:55:09;;;;;;;12.82;5.45;;;13.40;96.10;;;;;;5088704;28;20040;-66
2021/10/28 19:57:39;;;;;;;14.85;5.90;;;13.40;96.30;;;;;;5090140;28;20076;-68
2021/10/28 20:00:24;;;;;;;19.23;5.75;;;13.40;96.30;;;;;;5089549;28;20388;-67
2021/10/28 20:03:18;;;;;;;14.35;5.57;;;13.40;96.40;;;;;;5090537;28;20044;-68
2021/10/28 20:06:03;;;;;;;10.13;5.40;;;13.40;96.40;;;;;;5089665;28;20091;-67
2021/10/28 20:14:32;;;;;;;12.25;5.90;;;13.40;96.80;;;;;;5088727;28;20048;-72
2021/10/28 20:22:23;;;;;;;12.85;6.50;;;13.40;97.00;;;;;;5087839;28;20506;-67
2021/10/28 20:24:51;;;;;;;10.75;5.93;;;13.40;97.10;;;;;;5089853;28;20063;-67
2021/10/28 20:27:18;;;;;;;11.95;6.05;;;13.40;97.20;;;;;;5088285;28;20051;-67
2021/10/28 20:29:44;;;;;;;12.82;6.85;;;13.40;97.30;;;;;;5089624;28;20051;-67
2021/10/28 20:32:11;;;;;;;9.50;5.80;;;13.40;97.30;;;;;;5089389;28;20079;-67
2021/10/28 20:37:35;;;;;;;13.25;7.50;;;13.40;97.40;;;;;;5069830;28;20086;-67
2021/10/28 20:40:03;;;;;;;17.23;6.45;;;13.40;97.60;;;;;;5086648;28;20043;-66
2021/10/28 20:42:36;;;;;;;11.20;6.65;;;13.40;98.00;;;;;;5089389;28;20066;-67
2021/10/28 20:45:10;;;;;;;13.88;7.72;;;13.40;97.70;;;;;;5089757;28;20051;-67
2021/10/28 20:47:40;;;;;;;9.98;6.50;;;13.40;97.80;;;;;;5088673;28;20046;-67
2021/10/28 20:50:11;;;;;;;14.90;7.57;;;13.50;97.80;;;;;;5088584;28;20418;-68
2021/10/28 20:52:39;;;;;;;16.90;7.43;;;13.50;97.70;;;;;;5087412;28;20052;-68
2021/10/28 20:55:07;;;;;;;16.77;6.75;;;13.50;97.70;;;;;;5087367;28;20044;-67
2021/10/28 20:57:35;;;;;;;10.40;7.38;;;13.50;97.80;;;;;;5088528;28;20040;-67
2021/10/28 21:00:09;;;;;;;15.85;7.25;;;13.60;97.80;;;;;;5071283;28;20179;-67
2021/10/28 21:02:37;;;;;;;13.38;7.32;;;13.60;97.80;;;;;;5089475;28;20051;-68
2021/10/28 21:05:12;;;;;;;16.92;9.05;;;13.60;97.80;;;;;;5067849;28;20056;-68
2021/10/28 21:07:40;;;;;;;20.77;8.07;;;13.60;97.70;;;;;;5064272;28;20483;-67
2021/10/28 21:10:08;;;;;;;14.13;7.57;;;13.70;97.70;;;;;;5088842;28;20561;-67
2021/10/28 21:12:35;;;;;;;13.65;7.07;;;13.70;97.70;;;;;;5088423;28;20048;-67
2021/10/28 21:15:04;;;;;;;14.07;7.45;;;13.60;97.70;;;;;;5089286;28;20044;-68
2021/10/28 21:17:31;;;;;;;14.27;7.60;;;13.70;97.90;;;;;;5089072;28;20048;-67
2021/10/28 21:19:58;;;;;;;21.67;7.22;;;13.70;97.80;;;;;;5068658;28;20048;-67
2021/10/28 21:22:25;;;;;;;16.77;7.65;;;13.70;97.80;;;;;;5086979;28;20475;-67
2021/10/28 21:24:52;;;;;;;13.25;6.70;;;13.70;97.90;;;;;;5087400;28;20056;-68
2021/10/28 21:27:20;;;;;;;9.52;6.82;;;13.60;97.90;;;;;;5086543;28;20480;-67
2021/10/28 21:29:47;;;;;;;10.23;6.32;;;13.60;97.90;;;;;;5087570;28;20055;-68
2021/10/28 21:32:14;;;;;;;15.70;7.43;;;13.60;98.00;;;;;;5087114;28;20040;-67
2021/10/28 21:34:43;;;;;;;12.63;6.82;;;13.60;98.00;;;;;;5071477;28;20052;-69
2021/10/28 21:37:11;;;;;;;13.18;6.63;;;13.60;98.00;;;;;;5088047;28;20051;-67
2021/10/28 21:39:39;;;;;;;14.55;6.55;;;13.60;97.90;;;;;;5087078;28;20123;-67
2021/10/28 21:42:07;;;;;;;20.20;8.27;;;13.70;98.00;;;;;;5087242;28;20040;-67
2021/10/28 21:44:35;;;;;;;13.18;6.88;;;13.70;98.00;;;;;;5088760;28;20052;-67
2021/10/28 21:47:02;;;;;;;14.07;7.30;;;13.70;98.00;;;;;;5088879;28;20044;-68
2021/10/28 21:49:29;;;;;;;13.60;7.40;;;13.70;97.90;;;;;;5088733;28;20484;-68
2021/10/28 21:52:06;;;;;;;18.02;7.65;;;13.70;97.80;;;;;;5053771;28;20056;-67